Skip Navigation Links Skip Navigation Links

Current Weather

Dewar Lakes, Nunavut

For information only: do not use for flight planning or navigation.
Latest weather
Observation time Sunday, January 21, 2018 3:00 PM EST
Local time Sunday, January 21, 2018 3:40 PM EST
Flight conditions Low Instrument Meteorological Conditions
Winds
Wind direction East (90°)
Wind speed 10 mph
Visibility 0 mi.
Present weather SM
Sky condition
Ceiling unlimited
Temperature -8°F
Dewpoint -13°F
Altimeter 29.59 in.Hg
Derived measurements
Relative humidity 76%
Wind chill -26°F
Density altitude -3832 ft.
Remarks
Fully automated report.
METAR CWUW 212000Z AUTO 09009KT ////SM //// NCD M22/M25 A2959

Settings

Location code

InnerDrive.Weather 4.0.6144.1 Release CLR 4.0.30319.36366
Copyright ©2015 Inner Drive Technology. All rights reserved. Portions Copyright ©1986-2015 David Braverman.

Find weather

Site navigation


Skip Navigation Links

Place info

Page info

PayPal - The safer, easier way to pay online!

Return home.

Copyright ©2018 Inner Drive Technology. Purveyors of fine, hand-crafted computer software. Page printed 2018-01-21T20:40:33 UTC.